Norwegian Spirit — C6TQ6 — position and weather

sailwx.info

Track history (hours):
 
Tides and Currents Weather Stations Pressure Air Temp Water Temp Dewpoint Dewpoint Depression Visibility Wind Speed Wind Dir Waves Ship Positions

Norwegian Spirit

Operator: Norwegian Cruise Line

Last reported at 2019-Jul-23 22:12 UTC. Time now 2019-Jul-23 22:44 UTC.
Position N 56°31' W 002°03'.

Type: Passenger vessel. MMSI: 311746000.

Date/timePositionNaut miles runAvg speedWind from/ knotsBaromVisibWave heightAir tempDewpointWater temp
2019-Jul-23 22:12N 56°31' W 002°03'520.1
2019-Jul-23 21:57N 56°27' W 002°07'919.8
2019-Jul-23 21:30N 56°20' W 002°16'1019.6
2019-Jul-23 21:00N 56°12' W 002°27'1019.8
2019-Jul-23 20:30N 56°07' W 002°42'1019.9
2019-Jul-23 20:00N 56°03' W 002°59'612.6
2019-Jul-23 19:30N 56°01' W 003°09'1 2.0
2019-Jul-23 18:58N 56°01' W 003°11'0 0.0
2019-Jul-23 18:26N 56°01' W 003°11'0 0.0
2019-Jul-23 17:59N 56°01' W 003°11'0 0.0
2019-Jul-23 17:26N 56°01' W 003°11'0 0.0
2019-Jul-23 16:59N 56°01' W 003°11'0 0.1
2019-Jul-23 16:29N 56°01' W 003°11'0 0.0
2019-Jul-23 15:59N 56°01' W 003°11'0 0.0
2019-Jul-23 15:29N 56°01' W 003°11'0 0.0
2019-Jul-23 14:59N 56°01' W 003°11'0 0.0
2019-Jul-23 14:29N 56°01' W 003°11'0 0.0
2019-Jul-23 14:00N 56°01' W 003°11'0 0.0
2019-Jul-23 13:30N 56°01' W 003°11'0 0.0
2019-Jul-23 13:00N 56°01' W 003°11'0 0.0
2019-Jul-23 12:30N 56°01' W 003°11'0 0.0
2019-Jul-23 12:00N 56°01' W 003°11'0 0.0
2019-Jul-23 11:31N 56°01' W 003°11'0 0.0
2019-Jul-23 11:00N 56°01' W 003°11'0 0.0
2019-Jul-23 10:30N 56°01' W 003°11'0 0.0
2019-Jul-23 10:01N 56°01' W 003°11'0 0.0
2019-Jul-23 09:30N 56°01' W 003°11'0 0.0
2019-Jul-23 09:00N 56°01' W 003°11'0 0.0
2019-Jul-23 08:30N 56°01' W 003°11'0 0.0
2019-Jul-23 08:00N 56°01' W 003°11'0 0.1
2019-Jul-23 07:31N 56°01' W 003°11'2 3.7
2019-Jul-23 07:00N 56°01' W 003°08'510.4
2019-Jul-23 06:30N 56°03' W 002°60'816.3
2019-Jul-23 06:01N 56°06' W 002°46'1019.9
2019-Jul-23 05:30N 56°05' W 002°28'1019.8
2019-Jul-23 05:01N 56°02' W 002°12'1019.5
2019-Jul-23 04:31N 55°58' W 001°56'1020.2
2019-Jul-23 04:00N 55°51' W 001°43'1020.5
2019-Jul-23 03:31N 55°44' W 001°29'1120.9
2019-Jul-23 03:00N 55°38' W 001°15'10921.8
2019-Jul-22 22:00N 54°24' E 001°06'572.4 280 / 271024.010.8 15.011.616.0
2019-Jul-22 21:56N 54°26' E 001°13'1620.9
2019-Jul-22 21:11N 54°16' E 001°34'421.1
2019-Jul-22 21:00N 54°14' E 001°39'1121.3
2019-Jul-22 20:30N 54°07' E 001°53'1122.1
2019-Jul-22 20:00N 53°60' E 002°07'1422.1
2019-Jul-22 19:23N 53°51' E 002°25'922.9
2019-Jul-22 19:00N 53°44' E 002°33'1223.3
2019-Jul-22 18:30N 53°33' E 002°41'917.4
2019-Jul-22 18:00N 53°24' E 002°42'563.6 220 / 131020.010.8 17.013.716.0
2019-Jul-22 17:55N 53°19' E 002°46'1024.0
2019-Jul-22 17:30N 53°10' E 002°46'1224.0
2019-Jul-22 17:00N 52°58' E 002°44'1223.8
2019-Jul-22 16:31N 52°46' E 002°43'1223.4
2019-Jul-22 16:01N 52°34' E 002°43'1223.1
2019-Jul-22 15:31N 52°23' E 002°43'1122.7
2019-Jul-22 15:00N 52°11' E 002°43'1122.4
2019-Jul-22 14:30N 51°60' E 002°40'1122.0
2019-Jul-22 14:00N 51°49' E 002°38'1121.7
2019-Jul-22 13:30N 51°40' E 002°29'1121.8
2019-Jul-22 13:01N 51°32' E 002°18'291.4
2019-Jul-22 13:00N 51°30' E 002°18'919.0 280 / 231030.010.8 23.0 21.0
2019-Jul-22 12:30N 51°22' E 002°10'1020.7
2019-Jul-22 12:00N 51°13' E 002°02'1020.6
2019-Jul-22 11:30N 51°08' E 001°48'1020.3
2019-Jul-22 11:00N 51°01' E 001°36'1020.1
2019-Jul-22 10:30N 50°52' E 001°28'1020.7
2019-Jul-22 10:00N 50°42' E 001°23'1121.2
2019-Jul-22 09:30N 50°35' E 001°11'1121.7
2019-Jul-22 09:00N 50°29' E 000°56'1121.7
2019-Jul-22 08:30N 50°26' E 000°40'1121.7
2019-Jul-22 08:00N 50°23' E 000°24'1121.5
2019-Jul-22 07:30N 50°22' E 000°07'1121.3
2019-Jul-22 07:00N 50°21' W 000°10'1121.2
2019-Jul-22 06:30N 50°23' W 000°26'1121.1
2019-Jul-22 06:00N 50°29' W 000°39'1019.3
2019-Jul-22 05:30N 50°36' W 000°49'714.7
2019-Jul-22 05:00N 50°41' W 000°58'816.1
2019-Jul-22 04:30N 50°46' W 001°09'612.7
2019-Jul-22 04:00N 50°48' W 001°18'5 9.8
2019-Jul-22 03:31N 50°52' W 001°22'1 2.9
2019-Jul-22 03:00N 50°53' W 001°24'0 0.0
2019-Jul-22 02:28N 50°53' W 001°24'0 0.0
2019-Jul-22 01:58N 50°53' W 001°24'0 0.0
2019-Jul-22 01:28N 50°53' W 001°24'0 0.0
2019-Jul-22 00:58N 50°53' W 001°24'0 0.0
2019-Jul-22 00:28N 50°53' W 001°24'0 0.0
2019-Jul-21 23:52N 50°53' W 001°24'0 0.0
2019-Jul-21 23:28N 50°53' W 001°24'0 0.0
2019-Jul-21 22:55N 50°53' W 001°24'0 0.0
2019-Jul-21 22:28N 50°53' W 001°24'0 0.0
2019-Jul-21 21:55N 50°53' W 001°24'0 0.0
2019-Jul-21 21:28N 50°53' W 001°24'0 0.0
2019-Jul-21 20:58N 50°53' W 001°24'0 0.0
2019-Jul-21 20:28N 50°53' W 001°24'0 0.0
2019-Jul-21 19:58N 50°53' W 001°24'0 0.0
2019-Jul-21 19:28N 50°53' W 001°24'0 0.0
2019-Jul-21 18:58N 50°53' W 001°24'0 0.0
2019-Jul-21 18:28N 50°53' W 001°24'0 0.0
2019-Jul-21 17:58N 50°53' W 001°24'0 0.0
2019-Jul-21 17:28N 50°53' W 001°24'0 0.0
2019-Jul-21 16:58N 50°53' W 001°24'0 0.0
2019-Jul-21 16:28N 50°53' W 001°24'0 0.0
2019-Jul-21 15:58N 50°53' W 001°24'0 0.0
2019-Jul-21 15:28N 50°53' W 001°24'0 0.0
2019-Jul-21 14:58N 50°53' W 001°24'0 0.0
2019-Jul-21 14:28N 50°53' W 001°24'0 0.0
2019-Jul-21 13:58N 50°53' W 001°24'0 0.0
2019-Jul-21 13:28N 50°53' W 001°24'0 0.0
2019-Jul-21 12:58N 50°53' W 001°24'0 0.0
2019-Jul-21 12:28N 50°53' W 001°24'0 0.0
2019-Jul-21 11:58N 50°53' W 001°24'0 0.0
2019-Jul-21 11:28N 50°53' W 001°24'0 0.0
2019-Jul-21 10:58N 50°53' W 001°24'0 0.0
2019-Jul-21 10:28N 50°53' W 001°24'0 0.0
2019-Jul-21 09:58N 50°53' W 001°24'0 0.0
2019-Jul-21 09:28N 50°53' W 001°24'0 0.0
2019-Jul-21 08:58N 50°53' W 001°24'0 0.0
2019-Jul-21 08:28N 50°53' W 001°24'0 0.0
2019-Jul-21 07:58N 50°53' W 001°24'0 0.0
2019-Jul-21 07:28N 50°53' W 001°24'0 0.0
2019-Jul-21 06:58N 50°53' W 001°24'0 0.0
2019-Jul-21 06:28N 50°53' W 001°24'0 0.0
2019-Jul-21 05:58N 50°53' W 001°24'0 0.0
2019-Jul-21 05:25N 50°53' W 001°24'0 0.0
2019-Jul-21 04:58N 50°53' W 001°24'0 0.0
2019-Jul-21 04:28N 50°53' W 001°24'0 0.0
2019-Jul-21 03:58N 50°53' W 001°24'0 0.0
2019-Jul-21 03:30N 50°53' W 001°24'2 3.6
2019-Jul-21 03:00N 50°52' W 001°22'4 8.8
2019-Jul-21 02:30N 50°48' W 001°18'510.1
2019-Jul-21 02:01N 50°46' W 001°11'917.9
2019-Jul-21 01:30N 50°42' W 000°58'714.3
2019-Jul-21 01:00N 50°37' W 000°49'918.9
2019-Jul-21 00:30N 50°33' W 000°36'918.5
2019-Jul-21 00:00N 50°32' W 000°22'918.2
2019-Jul-20 23:30N 50°32' W 000°07'917.9
2019-Jul-20 23:00N 50°34' E 000°07'917.7
2019-Jul-20 22:30N 50°35' E 000°20'917.9
2019-Jul-20 22:00N 50°38' E 000°34'918.8
2019-Jul-20 21:30N 50°42' E 000°47'1019.7
2019-Jul-20 21:00N 50°48' E 000°59'147.9
2019-Jul-20 21:00N 50°48' E 001°00'1020.2 130 / 241014.027.0 16.012.615.0
2019-Jul-20 20:30N 50°53' E 001°13'1020.7
2019-Jul-20 20:00N 51°00' E 001°25'1020.7
2019-Jul-20 19:30N 51°07' E 001°37'1019.8
2019-Jul-20 19:00N 51°15' E 001°48'918.8
2019-Jul-20 18:30N 51°23' E 001°55'816.4
2019-Jul-20 18:00N 51°23' E 002°08'918.0
2019-Jul-20 17:30N 51°21' E 002°22'917.8
2019-Jul-20 17:00N 51°23' E 002°36'714.0
2019-Jul-20 16:30N 51°22' E 002°47'816.5
2019-Jul-20 16:00N 51°24' E 002°60'713.7
2019-Jul-20 15:29N 51°22' E 003°11'2 2.9
2019-Jul-20 14:52N 51°20' E 003°12'0 0.0
2019-Jul-20 14:28N 51°20' E 003°12'0 0.0
2019-Jul-20 13:55N 51°20' E 003°12'0 0.0
2019-Jul-20 13:25N 51°20' E 003°12'0 0.0
2019-Jul-20 12:53N 51°20' E 003°12'0 0.0
2019-Jul-20 12:28N 51°20' E 003°12'0 0.0
2019-Jul-20 11:55N 51°20' E 003°12'0 0.0
2019-Jul-20 11:28N 51°20' E 003°12'0 0.0
2019-Jul-20 10:55N 51°20' E 003°12'0 0.0
2019-Jul-20 10:28N 51°20' E 003°12'0 0.0
2019-Jul-20 09:58N 51°20' E 003°12'0 0.0
2019-Jul-20 09:25N 51°20' E 003°12'0 0.0
2019-Jul-20 08:58N 51°20' E 003°12'0 0.0
2019-Jul-20 08:25N 51°20' E 003°12'0 0.0
2019-Jul-20 07:55N 51°20' E 003°12'0 0.0
2019-Jul-20 07:16N 51°20' E 003°12'0 0.0
2019-Jul-20 06:55N 51°20' E 003°12'0 0.0
2019-Jul-20 06:25N 51°20' E 003°12'0 0.0
2019-Jul-20 05:55N 51°20' E 003°12'0 0.0
2019-Jul-20 05:28N 51°20' E 003°12'0 0.0
2019-Jul-20 04:58N 51°20' E 003°12'0 0.0
2019-Jul-20 04:28N 51°20' E 003°12'0 0.0
2019-Jul-20 03:55N 51°20' E 003°12'0 0.0
2019-Jul-20 03:30N 51°20' E 003°12'1 1.0
2019-Jul-20 03:00N 51°21' E 003°12'713.0
2019-Jul-20 02:30N 51°24' E 003°04'816.9
2019-Jul-20 02:00N 51°22' E 002°51'611.1
2019-Jul-20 01:30N 51°22' E 002°42'815.2
2019-Jul-20 01:00N 51°24' E 002°30'817.0
2019-Jul-20 00:30N 51°32' E 002°36'917.2
2019-Jul-20 00:00N 51°40' E 002°39'1017.9
2019-Jul-19 23:28N 51°50' E 002°36'817.1
2019-Jul-19 23:01N 51°57' E 002°40'1118.4
2019-Jul-19 22:26N 52°05' E 002°52'1018.1
2019-Jul-19 21:52N 52°12' E 003°04'615.8
2019-Jul-19 21:30N 52°15' E 003°12'713.8
2019-Jul-19 21:00N 52°19' E 003°21'12883.1
2019-Jul-19 21:00N 52°12' E 003°06'1837.8 190 / 211011.010.8 15.011.615.0
2019-Jul-19 20:30N 52°23' E 003°29'714.1
2019-Jul-19 20:00N 52°27' E 003°39'714.2
2019-Jul-19 19:30N 52°30' E 003°50'714.1
2019-Jul-19 19:00N 52°31' E 004°01'713.9
2019-Jul-19 18:30N 52°31' E 004°12'714.2
2019-Jul-19 18:00N 52°30' E 004°24'612.2
2019-Jul-19 17:31N 52°28' E 004°34'0 0.9
2019-Jul-19 16:59N 52°28' E 004°34'0 0.0
2019-Jul-19 16:29N 52°28' E 004°34'0 0.0
2019-Jul-19 15:59N 52°28' E 004°34'0 0.0
2019-Jul-19 15:29N 52°28' E 004°34'0 0.0
2019-Jul-19 14:59N 52°28' E 004°34'0 0.0
2019-Jul-19 14:29N 52°28' E 004°34'0 0.0
2019-Jul-19 13:59N 52°28' E 004°34'0 0.0
2019-Jul-19 13:29N 52°28' E 004°34'0 0.0
2019-Jul-19 12:59N 52°28' E 004°34'0 0.0
2019-Jul-19 12:29N 52°28' E 004°34'0 0.0
2019-Jul-19 11:56N 52°28' E 004°34'0 0.0
2019-Jul-19 11:29N 52°28' E 004°34'0 0.0
2019-Jul-19 10:59N 52°28' E 004°34'0 0.0
2019-Jul-19 10:29N 52°28' E 004°34'0 0.0
2019-Jul-19 09:59N 52°28' E 004°34'0 0.0
2019-Jul-19 09:29N 52°28' E 004°34'0 0.0
2019-Jul-19 08:59N 52°28' E 004°34'0 0.0
2019-Jul-19 08:26N 52°28' E 004°34'0 0.0
2019-Jul-19 07:59N 52°28' E 004°34'0 0.0
2019-Jul-19 07:29N 52°28' E 004°34'0 0.0
2019-Jul-19 06:59N 52°28' E 004°34'0 0.0
2019-Jul-19 06:29N 52°28' E 004°34'0 0.0
2019-Jul-19 05:59N 52°28' E 004°34'0 0.0
2019-Jul-19 05:29N 52°28' E 004°34'0 0.0
2019-Jul-19 04:59N 52°28' E 004°34'0 0.0
2019-Jul-19 04:31N 52°28' E 004°34'1 1.2
2019-Jul-19 04:01N 52°28' E 004°33'611.8
2019-Jul-19 03:30N 52°29' E 004°24'815.3
2019-Jul-19 03:01N 52°29' E 004°11'815.8
2019-Jul-19 02:30N 52°36' E 004°04'816.3
2019-Jul-19 02:00N 52°43' E 003°59'816.9
2019-Jul-19 01:30N 52°52' E 003°58'917.2
2019-Jul-19 01:00N 52°60' E 004°03'918.1
2019-Jul-19 00:30N 53°06' E 004°14'918.4
2019-Jul-19 00:00N 53°13' E 004°24'140.2
2019-Jul-19 00:00N 53°12' E 004°24'1021.2 270 / 161007.010.8 14.010.514.0
2019-Jul-18 23:30N 53°22' E 004°30'1119.2
2019-Jul-18 22:57N 53°32' E 004°37'819.1
2019-Jul-18 22:30N 53°39' E 004°41'1118.8
2019-Jul-18 21:56N 53°49' E 004°49'16818.8
2019-Jul-18 13:00N 56°36' E 004°18'1920.0 180 / 261007.0 5.4 15.0 9.614.0
2019-Jul-18 12:03N 56°55' E 004°18'119.2
2019-Jul-18 12:00N 56°56' E 004°18'2446.7
2019-Jul-18 12:00N 56°54' E 004°18'1422.2 180 / 301006.0 5.4 14.012.315.0
2019-Jul-18 11:22N 57°08' E 004°17'719.0
2019-Jul-18 11:00N 57°15' E 004°16'1018.9
2019-Jul-18 10:29N 57°24' E 004°14'918.9
2019-Jul-18 10:00N 57°34' E 004°12'1019.3
2019-Jul-18 09:30N 57°43' E 004°11'1019.1
2019-Jul-18 09:00N 57°53' E 004°11'5722.5
2019-Jul-18 09:00N 57°48' E 004°06'1429.4 170 / 241006.0 2.2 15.011.615.0
2019-Jul-18 08:30N 58°02' E 004°10'1019.2
2019-Jul-18 08:00N 58°12' E 004°09'919.0
2019-Jul-18 07:30N 58°21' E 004°07'1019.0
2019-Jul-18 07:00N 58°31' E 004°05'918.9
2019-Jul-18 06:30N 58°40' E 004°03'918.7
2019-Jul-18 06:00N 58°49' E 004°03'918.5
2019-Jul-18 05:30N 58°59' E 004°02'918.4
2019-Jul-18 05:00N 59°08' E 004°02'918.4
2019-Jul-18 04:30N 59°17' E 004°02'918.2
2019-Jul-18 04:00N 59°26' E 004°02'2161.6
2019-Jul-18 04:00N 59°24' E 004°00'1123.4 180 / 341006.0 2.2 13.0 13.0
2019-Jul-18 03:30N 59°35' E 004°01'918.8
2019-Jul-18 03:00N 59°45' E 004°01'1018.8
2019-Jul-18 02:30N 59°54' E 004°00'1018.9
2019-Jul-18 02:00N 60°04' E 003°59'918.9
2019-Jul-18 01:30N 60°13' E 003°59'1018.9
2019-Jul-18 01:00N 60°23' E 004°01'51125.9
2019-Jul-18 01:00N 60°18' E 004°00'1428.6 180 / 301006.0 5.4 11.0 7.214.0
2019-Jul-18 00:30N 60°32' E 004°02'1019.4
2019-Jul-18 00:00N 60°42' E 004°02'1019.8
2019-Jul-17 23:30N 60°52' E 004°02'1019.3
2019-Jul-17 23:00N 61°01' E 004°01'1019.2
2019-Jul-17 22:30N 61°11' E 004°02'1019.0
2019-Jul-17 22:00N 61°20' E 004°02'273723.1
2019-Jul-17 22:00N 61°42' E 004°36'1939.2 170 / 221019.010.8 14.010.515.0
2019-Jul-17 21:30N 61°30' E 004°05'1019.3
2019-Jul-17 21:00N 61°38' E 004°14'918.7
2019-Jul-17 20:30N 61°42' E 004°32'4 9.0
2019-Jul-17 20:00N 61°46' E 004°35'918.8
2019-Jul-17 19:30N 61°55' E 004°42'815.7
2019-Jul-17 19:00N 61°57' E 004°59'917.9
2019-Jul-17 18:30N 61°54' E 005°17'714.7
2019-Jul-17 18:00N 61°55' E 005°33'815.7
2019-Jul-17 17:30N 61°54' E 005°50'4 8.4
2019-Jul-17 17:01N 61°54' E 005°58'0 0.7
2019-Jul-17 16:28N 61°54' E 005°59'0 0.0
2019-Jul-17 15:58N 61°54' E 005°59'0 0.0
2019-Jul-17 15:28N 61°54' E 005°59'0 0.0
2019-Jul-17 14:58N 61°54' E 005°59'0 0.0
2019-Jul-17 14:28N 61°54' E 005°59'0 0.0
2019-Jul-17 13:58N 61°54' E 005°59'0 0.0
2019-Jul-17 13:28N 61°54' E 005°59'0 0.0
2019-Jul-17 12:58N 61°54' E 005°59'0 0.0
2019-Jul-17 12:28N 61°54' E 005°59'0 0.0
2019-Jul-17 11:58N 61°54' E 005°59'0 0.0
2019-Jul-17 11:28N 61°54' E 005°59'0 0.0
2019-Jul-17 10:58N 61°54' E 005°59'0 0.0
2019-Jul-17 10:28N 61°54' E 005°59'0 0.0
2019-Jul-17 09:58N 61°54' E 005°59'0 0.0
2019-Jul-17 09:28N 61°54' E 005°59'0 0.0
2019-Jul-17 08:58N 61°54' E 005°59'0 0.0
2019-Jul-17 08:28N 61°54' E 005°59'0 0.0
2019-Jul-17 07:58N 61°54' E 005°59'0 0.0
2019-Jul-17 07:28N 61°54' E 005°59'0 0.0
2019-Jul-17 06:58N 61°54' E 005°59'0 0.0
2019-Jul-17 06:28N 61°54' E 005°59'0 0.0
2019-Jul-17 05:58N 61°54' E 005°59'0 0.0
2019-Jul-17 05:28N 61°54' E 005°59'0 0.0
2019-Jul-17 04:58N 61°54' E 005°59'0 0.0
2019-Jul-17 04:28N 61°54' E 005°59'0 0.0
2019-Jul-17 03:59N 61°54' E 005°59'1 2.0
2019-Jul-17 03:30N 61°55' E 005°57'611.9
2019-Jul-17 03:00N 61°54' E 005°44'815.7
2019-Jul-17 02:30N 61°55' E 005°28'815.3
2019-Jul-17 02:00N 61°54' E 005°12'713.5
2019-Jul-17 01:30N 61°56' E 004°59'714.0
2019-Jul-17 01:00N 62°00' E 004°46'714.4
2019-Jul-17 00:30N 62°04' E 004°34'612.4
2019-Jul-16 23:59N 62°10' E 004°29'714.3
2019-Jul-16 23:30N 62°16' E 004°36'714.4
2019-Jul-16 23:00N 62°22' E 004°44'713.8
2019-Jul-16 22:30N 62°28' E 004°52'713.8
2019-Jul-16 22:00N 62°31' E 005°06'714.3
2019-Jul-16 21:30N 62°31' E 005°21'714.4
2019-Jul-16 21:00N 62°31' E 005°37'62400.3
2019-Jul-16 21:00N 62°30' E 005°24'1325.6 050 / 131014.027.0 13.0 9.413.0
2019-Jul-16 20:30N 62°28' E 005°51'713.6
2019-Jul-16 20:00N 62°24' E 006°03'713.7
2019-Jul-16 19:30N 62°24' E 006°18'1019.2
2019-Jul-16 19:00N 62°27' E 006°37'917.2
2019-Jul-16 18:30N 62°25' E 006°55'917.1
2019-Jul-16 18:00N 62°17' E 007°01'815.4
2019-Jul-16 17:30N 62°09' E 006°59'4 8.5
2019-Jul-16 17:00N 62°06' E 007°05'3 6.1
2019-Jul-16 16:30N 62°06' E 007°12'0 0.1
2019-Jul-16 16:00N 62°06' E 007°12'0 0.0
2019-Jul-16 15:30N 62°06' E 007°12'0 0.0
2019-Jul-16 15:00N 62°06' E 007°12'0 0.0
2019-Jul-16 14:30N 62°06' E 007°12'0 0.0
2019-Jul-16 14:00N 62°06' E 007°12'0 0.0
2019-Jul-16 13:30N 62°06' E 007°12'0 0.0
2019-Jul-16 13:00N 62°06' E 007°12'0 0.0
2019-Jul-16 12:30N 62°06' E 007°12'0 0.0
2019-Jul-16 12:00N 62°06' E 007°12'0 0.0
2019-Jul-16 11:30N 62°06' E 007°12'0 0.0
2019-Jul-16 11:00N 62°06' E 007°12'0 0.0
2019-Jul-16 10:30N 62°06' E 007°12'0 0.0
2019-Jul-16 10:00N 62°06' E 007°12'0 0.0
2019-Jul-16 09:30N 62°06' E 007°12'0 0.0
2019-Jul-16 09:00N 62°06' E 007°12'0 0.0
2019-Jul-16 08:30N 62°06' E 007°12'0 0.0
2019-Jul-16 08:00N 62°06' E 007°12'0 0.0
2019-Jul-16 07:30N 62°06' E 007°12'0 0.0
2019-Jul-16 07:00N 62°06' E 007°12'0 0.0
2019-Jul-16 06:30N 62°06' E 007°12'0 0.1
2019-Jul-16 06:00N 62°06' E 007°12'2 3.7
2019-Jul-16 05:30N 62°07' E 007°08'511.0
2019-Jul-16 05:00N 62°08' E 006°57'917.6
2019-Jul-16 04:30N 62°16' E 007°01'917.7
2019-Jul-16 04:00N 62°25' E 006°55'816.9
2019-Jul-16 03:30N 62°26' E 006°37'1019.4
2019-Jul-16 03:00N 62°23' E 006°18'816.3
2019-Jul-16 02:30N 62°26' E 006°01'713.2
2019-Jul-16 02:00N 62°29' E 005°48'1020.4
2019-Jul-16 01:29N 62°33' E 005°28'1020.2
2019-Jul-16 01:00N 62°38' E 005°09'28618042.0
2019-Jul-16 01:00N 62°36' W 005°12'276570.0 060 / 181018.0 5.4 11.0 7.213.0
2019-Jul-16 00:30N 62°41' E 004°48'1120.9
2019-Jul-16 00:00N 62°44' E 004°27'1021.0
2019-Jul-15 23:30N 62°48' E 004°05'1122.0
2019-Jul-15 23:00N 62°54' E 003°44'1122.1
2019-Jul-15 22:29N 62°58' E 003°22'714.7
2019-Jul-15 22:00N 63°00' E 003°06'1629.1 010 / 91020.010.8 14.010.513.0
2019-Jul-15 21:26N 63°08' E 002°35'13029.3
2019-Jul-15 17:00N 63°42' W 002°06'3511.7 050 / 51020.0 5.4 11.0 10.0
2019-Jul-15 14:00N 64°12' W 002°48'6923.0 310 / 51019.010.8 10.0 6.011.0
2019-Jul-15 11:00N 64°42' W 005°12'13919.9 090 / 91020.010.8 12.0 8.312.0
2019-Jul-15 04:00N 65°36' W 010°18'2525.3 120 / 101019.010.8 7.0 9.0
2019-Jul-15 03:00N 65°48' W 011°12'1818.2 170 / 151019.010.8 9.0 7.011.0
2019-Jul-15 02:00N 65°54' W 011°54'7023.3 160 / 151018.010.8 8.0 3.810.0
2019-Jul-14 23:00N 66°24' W 014°30'108 5.7 090 / 131018.0 0.1 11.0 7.210.0
2019-Jul-14 04:00N 66°24' W 019°00'7719.4 200 / 191017.0 9.0 4.9
2019-Jul-14 00:00N 66°36' W 022°12'   270 / 91018.0 1.1 12.0 8.3
Track history (hours):
 
Tides and Currents Weather Stations Pressure Air Temp Water Temp Dewpoint Dewpoint Depression Visibility Wind Speed Wind Dir Waves Ship Positions

Norwegian Spirit

Operator: Norwegian Cruise Line

Last reported at 2019-Jul-23 22:12 UTC. Time now 2019-Jul-23 22:44 UTC.
Position N 56°31' W 002°03'.

Type: Passenger vessel. MMSI: 311746000.

Date/timePositionNaut miles runAvg speedWind from/ knotsBaromVisibWave heightAir tempDewpointWater temp
2019-Jul-23 22:12N 56°31' W 002°03'520.1
2019-Jul-23 21:57N 56°27' W 002°07'919.8
2019-Jul-23 21:30N 56°20' W 002°16'1019.6
2019-Jul-23 21:00N 56°12' W 002°27'1019.8
2019-Jul-23 20:30N 56°07' W 002°42'1019.9
2019-Jul-23 20:00N 56°03' W 002°59'612.6
2019-Jul-23 19:30N 56°01' W 003°09'1 2.0
2019-Jul-23 18:58N 56°01' W 003°11'0 0.0
2019-Jul-23 18:26N 56°01' W 003°11'0 0.0
2019-Jul-23 17:59N 56°01' W 003°11'0 0.0
2019-Jul-23 17:26N 56°01' W 003°11'0 0.0
2019-Jul-23 16:59N 56°01' W 003°11'0 0.1
2019-Jul-23 16:29N 56°01' W 003°11'0 0.0
2019-Jul-23 15:59N 56°01' W 003°11'0 0.0
2019-Jul-23 15:29N 56°01' W 003°11'0 0.0
2019-Jul-23 14:59N 56°01' W 003°11'0 0.0
2019-Jul-23 14:29N 56°01' W 003°11'0 0.0
2019-Jul-23 14:00N 56°01' W 003°11'0 0.0
2019-Jul-23 13:30N 56°01' W 003°11'0 0.0
2019-Jul-23 13:00N 56°01' W 003°11'0 0.0
2019-Jul-23 12:30N 56°01' W 003°11'0 0.0
2019-Jul-23 12:00N 56°01' W 003°11'0 0.0
2019-Jul-23 11:31N 56°01' W 003°11'0 0.0
2019-Jul-23 11:00N 56°01' W 003°11'0 0.0
2019-Jul-23 10:30N 56°01' W 003°11'0 0.0
2019-Jul-23 10:01N 56°01' W 003°11'0 0.0
2019-Jul-23 09:30N 56°01' W 003°11'0 0.0
2019-Jul-23 09:00N 56°01' W 003°11'0 0.0
2019-Jul-23 08:30N 56°01' W 003°11'0 0.0
2019-Jul-23 08:00N 56°01' W 003°11'0 0.1
2019-Jul-23 07:31N 56°01' W 003°11'2 3.7
2019-Jul-23 07:00N 56°01' W 003°08'510.4
2019-Jul-23 06:30N 56°03' W 002°60'816.3
2019-Jul-23 06:01N 56°06' W 002°46'1019.9
2019-Jul-23 05:30N 56°05' W 002°28'1019.8
2019-Jul-23 05:01N 56°02' W 002°12'1019.5
2019-Jul-23 04:31N 55°58' W 001°56'1020.2
2019-Jul-23 04:00N 55°51' W 001°43'1020.5
2019-Jul-23 03:31N 55°44' W 001°29'1120.9
2019-Jul-23 03:00N 55°38' W 001°15'10921.8
2019-Jul-22 22:00N 54°24' E 001°06'572.4 280 / 271024.010.8 15.011.616.0
2019-Jul-22 21:56N 54°26' E 001°13'1620.9
2019-Jul-22 21:11N 54°16' E 001°34'421.1
2019-Jul-22 21:00N 54°14' E 001°39'1121.3
2019-Jul-22 20:30N 54°07' E 001°53'1122.1
2019-Jul-22 20:00N 53°60' E 002°07'1422.1
2019-Jul-22 19:23N 53°51' E 002°25'922.9
2019-Jul-22 19:00N 53°44' E 002°33'1223.3
2019-Jul-22 18:30N 53°33' E 002°41'917.4
2019-Jul-22 18:00N 53°24' E 002°42'563.6 220 / 131020.010.8 17.013.716.0
2019-Jul-22 17:55N 53°19' E 002°46'1024.0
2019-Jul-22 17:30N 53°10' E 002°46'1224.0
2019-Jul-22 17:00N 52°58' E 002°44'1223.8
2019-Jul-22 16:31N 52°46' E 002°43'1223.4
2019-Jul-22 16:01N 52°34' E 002°43'1223.1
2019-Jul-22 15:31N 52°23' E 002°43'1122.7
2019-Jul-22 15:00N 52°11' E 002°43'1122.4
2019-Jul-22 14:30N 51°60' E 002°40'1122.0
2019-Jul-22 14:00N 51°49' E 002°38'1121.7
2019-Jul-22 13:30N 51°40' E 002°29'1121.8
2019-Jul-22 13:01N 51°32' E 002°18'291.4
2019-Jul-22 13:00N 51°30' E 002°18'919.0 280 / 231030.010.8 23.0 21.0
2019-Jul-22 12:30N 51°22' E 002°10'1020.7
2019-Jul-22 12:00N 51°13' E 002°02'1020.6
2019-Jul-22 11:30N 51°08' E 001°48'1020.3
2019-Jul-22 11:00N 51°01' E 001°36'1020.1
2019-Jul-22 10:30N 50°52' E 001°28'1020.7
2019-Jul-22 10:00N 50°42' E 001°23'1121.2
2019-Jul-22 09:30N 50°35' E 001°11'1121.7
2019-Jul-22 09:00N 50°29' E 000°56'1121.7
2019-Jul-22 08:30N 50°26' E 000°40'1121.7
2019-Jul-22 08:00N 50°23' E 000°24'1121.5
2019-Jul-22 07:30N 50°22' E 000°07'1121.3
2019-Jul-22 07:00N 50°21' W 000°10'1121.2
2019-Jul-22 06:30N 50°23' W 000°26'1121.1
2019-Jul-22 06:00N 50°29' W 000°39'1019.3
2019-Jul-22 05:30N 50°36' W 000°49'714.7
2019-Jul-22 05:00N 50°41' W 000°58'816.1
2019-Jul-22 04:30N 50°46' W 001°09'612.7
2019-Jul-22 04:00N 50°48' W 001°18'5 9.8
2019-Jul-22 03:31N 50°52' W 001°22'1 2.9
2019-Jul-22 03:00N 50°53' W 001°24'0 0.0
2019-Jul-22 02:28N 50°53' W 001°24'0 0.0
2019-Jul-22 01:58N 50°53' W 001°24'0 0.0
2019-Jul-22 01:28N 50°53' W 001°24'0 0.0
2019-Jul-22 00:58N 50°53' W 001°24'0 0.0
2019-Jul-22 00:28N 50°53' W 001°24'0 0.0
2019-Jul-21 23:52N 50°53' W 001°24'0 0.0
2019-Jul-21 23:28N 50°53' W 001°24'0 0.0
2019-Jul-21 22:55N 50°53' W 001°24'0 0.0
2019-Jul-21 22:28N 50°53' W 001°24'0 0.0
2019-Jul-21 21:55N 50°53' W 001°24'0 0.0
2019-Jul-21 21:28N 50°53' W 001°24'0 0.0
2019-Jul-21 20:58N 50°53' W 001°24'0 0.0
2019-Jul-21 20:28N 50°53' W 001°24'0 0.0
2019-Jul-21 19:58N 50°53' W 001°24'0 0.0
2019-Jul-21 19:28N 50°53' W 001°24'0 0.0
2019-Jul-21 18:58N 50°53' W 001°24'0 0.0
2019-Jul-21 18:28N 50°53' W 001°24'0 0.0
2019-Jul-21 17:58N 50°53' W 001°24'0 0.0
2019-Jul-21 17:28N 50°53' W 001°24'0 0.0
2019-Jul-21 16:58N 50°53' W 001°24'0 0.0
2019-Jul-21 16:28N 50°53' W 001°24'0 0.0
2019-Jul-21 15:58N 50°53' W 001°24'0 0.0
2019-Jul-21 15:28N 50°53' W 001°24'0 0.0
2019-Jul-21 14:58N 50°53' W 001°24'0 0.0
2019-Jul-21 14:28N 50°53' W 001°24'0 0.0
2019-Jul-21 13:58N 50°53' W 001°24'0 0.0
2019-Jul-21 13:28N 50°53' W 001°24'0 0.0
2019-Jul-21 12:58N 50°53' W 001°24'0 0.0
2019-Jul-21 12:28N 50°53' W 001°24'0 0.0
2019-Jul-21 11:58N 50°53' W 001°24'0 0.0
2019-Jul-21 11:28N 50°53' W 001°24'0 0.0
2019-Jul-21 10:58N 50°53' W 001°24'0 0.0
2019-Jul-21 10:28N 50°53' W 001°24'0 0.0
2019-Jul-21 09:58N 50°53' W 001°24'0 0.0
2019-Jul-21 09:28N 50°53' W 001°24'0 0.0
2019-Jul-21 08:58N 50°53' W 001°24'0 0.0
2019-Jul-21 08:28N 50°53' W 001°24'0 0.0
2019-Jul-21 07:58N 50°53' W 001°24'0 0.0
2019-Jul-21 07:28N 50°53' W 001°24'0 0.0
2019-Jul-21 06:58N 50°53' W 001°24'0 0.0
2019-Jul-21 06:28N 50°53' W 001°24'0 0.0
2019-Jul-21 05:58N 50°53' W 001°24'0 0.0
2019-Jul-21 05:25N 50°53' W 001°24'0 0.0
2019-Jul-21 04:58N 50°53' W 001°24'0 0.0
2019-Jul-21 04:28N 50°53' W 001°24'0 0.0
2019-Jul-21 03:58N 50°53' W 001°24'0 0.0
2019-Jul-21 03:30N 50°53' W 001°24'2 3.6
2019-Jul-21 03:00N 50°52' W 001°22'4 8.8
2019-Jul-21 02:30N 50°48' W 001°18'510.1
2019-Jul-21 02:01N 50°46' W 001°11'917.9
2019-Jul-21 01:30N 50°42' W 000°58'714.3
2019-Jul-21 01:00N 50°37' W 000°49'918.9
2019-Jul-21 00:30N 50°33' W 000°36'918.5
2019-Jul-21 00:00N 50°32' W 000°22'918.2
2019-Jul-20 23:30N 50°32' W 000°07'917.9
2019-Jul-20 23:00N 50°34' E 000°07'917.7
2019-Jul-20 22:30N 50°35' E 000°20'917.9
2019-Jul-20 22:00N 50°38' E 000°34'918.8
2019-Jul-20 21:30N 50°42' E 000°47'1019.7
2019-Jul-20 21:00N 50°48' E 000°59'147.9
2019-Jul-20 21:00N 50°48' E 001°00'1020.2 130 / 241014.027.0 16.012.615.0
2019-Jul-20 20:30N 50°53' E 001°13'1020.7
2019-Jul-20 20:00N 51°00' E 001°25'1020.7
2019-Jul-20 19:30N 51°07' E 001°37'1019.8
2019-Jul-20 19:00N 51°15' E 001°48'918.8
2019-Jul-20 18:30N 51°23' E 001°55'816.4
2019-Jul-20 18:00N 51°23' E 002°08'918.0
2019-Jul-20 17:30N 51°21' E 002°22'917.8
2019-Jul-20 17:00N 51°23' E 002°36'714.0
2019-Jul-20 16:30N 51°22' E 002°47'816.5
2019-Jul-20 16:00N 51°24' E 002°60'713.7
2019-Jul-20 15:29N 51°22' E 003°11'2 2.9
2019-Jul-20 14:52N 51°20' E 003°12'0 0.0
2019-Jul-20 14:28N 51°20' E 003°12'0 0.0
2019-Jul-20 13:55N 51°20' E 003°12'0 0.0
2019-Jul-20 13:25N 51°20' E 003°12'0 0.0
2019-Jul-20 12:53N 51°20' E 003°12'0 0.0
2019-Jul-20 12:28N 51°20' E 003°12'0 0.0
2019-Jul-20 11:55N 51°20' E 003°12'0 0.0
2019-Jul-20 11:28N 51°20' E 003°12'0 0.0
2019-Jul-20 10:55N 51°20' E 003°12'0 0.0
2019-Jul-20 10:28N 51°20' E 003°12'0 0.0
2019-Jul-20 09:58N 51°20' E 003°12'0 0.0
2019-Jul-20 09:25N 51°20' E 003°12'0 0.0
2019-Jul-20 08:58N 51°20' E 003°12'0 0.0
2019-Jul-20 08:25N 51°20' E 003°12'0 0.0
2019-Jul-20 07:55N 51°20' E 003°12'0 0.0
2019-Jul-20 07:16N 51°20' E 003°12'0 0.0
2019-Jul-20 06:55N 51°20' E 003°12'0 0.0
2019-Jul-20 06:25N 51°20' E 003°12'0 0.0
2019-Jul-20 05:55N 51°20' E 003°12'0 0.0
2019-Jul-20 05:28N 51°20' E 003°12'0 0.0
2019-Jul-20 04:58N 51°20' E 003°12'0 0.0
2019-Jul-20 04:28N 51°20' E 003°12'0 0.0
2019-Jul-20 03:55N 51°20' E 003°12'0 0.0
2019-Jul-20 03:30N 51°20' E 003°12'1 1.0
2019-Jul-20 03:00N 51°21' E 003°12'713.0
2019-Jul-20 02:30N 51°24' E 003°04'816.9
2019-Jul-20 02:00N 51°22' E 002°51'611.1
2019-Jul-20 01:30N 51°22' E 002°42'815.2
2019-Jul-20 01:00N 51°24' E 002°30'817.0
2019-Jul-20 00:30N 51°32' E 002°36'917.2
2019-Jul-20 00:00N 51°40' E 002°39'1017.9
2019-Jul-19 23:28N 51°50' E 002°36'817.1
2019-Jul-19 23:01N 51°57' E 002°40'1118.4
2019-Jul-19 22:26N 52°05' E 002°52'1018.1
2019-Jul-19 21:52N 52°12' E 003°04'615.8
2019-Jul-19 21:30N 52°15' E 003°12'713.8
2019-Jul-19 21:00N 52°19' E 003°21'12883.1
2019-Jul-19 21:00N 52°12' E 003°06'1837.8 190 / 211011.010.8 15.011.615.0
2019-Jul-19 20:30N 52°23' E 003°29'714.1
2019-Jul-19 20:00N 52°27' E 003°39'714.2
2019-Jul-19 19:30N 52°30' E 003°50'714.1
2019-Jul-19 19:00N 52°31' E 004°01'713.9
2019-Jul-19 18:30N 52°31' E 004°12'714.2
2019-Jul-19 18:00N 52°30' E 004°24'612.2
2019-Jul-19 17:31N 52°28' E 004°34'0 0.9
2019-Jul-19 16:59N 52°28' E 004°34'0 0.0
2019-Jul-19 16:29N 52°28' E 004°34'0 0.0
2019-Jul-19 15:59N 52°28' E 004°34'0 0.0
2019-Jul-19 15:29N 52°28' E 004°34'0 0.0
2019-Jul-19 14:59N 52°28' E 004°34'0 0.0
2019-Jul-19 14:29N 52°28' E 004°34'0 0.0
2019-Jul-19 13:59N 52°28' E 004°34'0 0.0
2019-Jul-19 13:29N 52°28' E 004°34'0 0.0
2019-Jul-19 12:59N 52°28' E 004°34'0 0.0
2019-Jul-19 12:29N 52°28' E 004°34'0 0.0
2019-Jul-19 11:56N 52°28' E 004°34'0 0.0
2019-Jul-19 11:29N 52°28' E 004°34'0 0.0
2019-Jul-19 10:59N 52°28' E 004°34'0 0.0
2019-Jul-19 10:29N 52°28' E 004°34'0 0.0
2019-Jul-19 09:59N 52°28' E 004°34'0 0.0
2019-Jul-19 09:29N 52°28' E 004°34'0 0.0
2019-Jul-19 08:59N 52°28' E 004°34'0 0.0
2019-Jul-19 08:26N 52°28' E 004°34'0 0.0
2019-Jul-19 07:59N 52°28' E 004°34'0 0.0
2019-Jul-19 07:29N 52°28' E 004°34'0 0.0
2019-Jul-19 06:59N 52°28' E 004°34'0 0.0
2019-Jul-19 06:29N 52°28' E 004°34'0 0.0
2019-Jul-19 05:59N 52°28' E 004°34'0 0.0
2019-Jul-19 05:29N 52°28' E 004°34'0 0.0
2019-Jul-19 04:59N 52°28' E 004°34'0 0.0
2019-Jul-19 04:31N 52°28' E 004°34'1 1.2
2019-Jul-19 04:01N 52°28' E 004°33'611.8
2019-Jul-19 03:30N 52°29' E 004°24'815.3
2019-Jul-19 03:01N 52°29' E 004°11'815.8
2019-Jul-19 02:30N 52°36' E 004°04'816.3
2019-Jul-19 02:00N 52°43' E 003°59'816.9
2019-Jul-19 01:30N 52°52' E 003°58'917.2
2019-Jul-19 01:00N 52°60' E 004°03'918.1
2019-Jul-19 00:30N 53°06' E 004°14'918.4
2019-Jul-19 00:00N 53°13' E 004°24'140.2
2019-Jul-19 00:00N 53°12' E 004°24'1021.2 270 / 161007.010.8 14.010.514.0
2019-Jul-18 23:30N 53°22' E 004°30'1119.2
2019-Jul-18 22:57N 53°32' E 004°37'819.1
2019-Jul-18 22:30N 53°39' E 004°41'1118.8
2019-Jul-18 21:56N 53°49' E 004°49'16818.8
2019-Jul-18 13:00N 56°36' E 004°18'1920.0 180 / 261007.0 5.4 15.0 9.614.0
2019-Jul-18 12:03N 56°55' E 004°18'119.2
2019-Jul-18 12:00N 56°56' E 004°18'2446.7
2019-Jul-18 12:00N 56°54' E 004°18'1422.2 180 / 301006.0 5.4 14.012.315.0
2019-Jul-18 11:22N 57°08' E 004°17'719.0
2019-Jul-18 11:00N 57°15' E 004°16'1018.9
2019-Jul-18 10:29N 57°24' E 004°14'918.9
2019-Jul-18 10:00N 57°34' E 004°12'1019.3
2019-Jul-18 09:30N 57°43' E 004°11'1019.1
2019-Jul-18 09:00N 57°53' E 004°11'5722.5
2019-Jul-18 09:00N 57°48' E 004°06'1429.4 170 / 241006.0 2.2 15.011.615.0
2019-Jul-18 08:30N 58°02' E 004°10'1019.2
2019-Jul-18 08:00N 58°12' E 004°09'919.0
2019-Jul-18 07:30N 58°21' E 004°07'1019.0
2019-Jul-18 07:00N 58°31' E 004°05'918.9
2019-Jul-18 06:30N 58°40' E 004°03'918.7
2019-Jul-18 06:00N 58°49' E 004°03'918.5
2019-Jul-18 05:30N 58°59' E 004°02'918.4
2019-Jul-18 05:00N 59°08' E 004°02'918.4
2019-Jul-18 04:30N 59°17' E 004°02'918.2
2019-Jul-18 04:00N 59°26' E 004°02'2161.6
2019-Jul-18 04:00N 59°24' E 004°00'1123.4 180 / 341006.0 2.2 13.0 13.0
2019-Jul-18 03:30N 59°35' E 004°01'918.8
2019-Jul-18 03:00N 59°45' E 004°01'1018.8
2019-Jul-18 02:30N 59°54' E 004°00'1018.9
2019-Jul-18 02:00N 60°04' E 003°59'918.9
2019-Jul-18 01:30N 60°13' E 003°59'1018.9
2019-Jul-18 01:00N 60°23' E 004°01'51125.9
2019-Jul-18 01:00N 60°18' E 004°00'1428.6 180 / 301006.0 5.4 11.0 7.214.0
2019-Jul-18 00:30N 60°32' E 004°02'1019.4
2019-Jul-18 00:00N 60°42' E 004°02'1019.8
2019-Jul-17 23:30N 60°52' E 004°02'1019.3
2019-Jul-17 23:00N 61°01' E 004°01'1019.2
2019-Jul-17 22:30N 61°11' E 004°02'1019.0
2019-Jul-17 22:00N 61°20' E 004°02'273723.1
2019-Jul-17 22:00N 61°42' E 004°36'1939.2 170 / 221019.010.8 14.010.515.0
2019-Jul-17 21:30N 61°30' E 004°05'1019.3
2019-Jul-17 21:00N 61°38' E 004°14'918.7
2019-Jul-17 20:30N 61°42' E 004°32'4 9.0
2019-Jul-17 20:00N 61°46' E 004°35'918.8
2019-Jul-17 19:30N 61°55' E 004°42'815.7
2019-Jul-17 19:00N 61°57' E 004°59'917.9
2019-Jul-17 18:30N 61°54' E 005°17'714.7
2019-Jul-17 18:00N 61°55' E 005°33'815.7
2019-Jul-17 17:30N 61°54' E 005°50'4 8.4
2019-Jul-17 17:01N 61°54' E 005°58'0 0.7
2019-Jul-17 16:28N 61°54' E 005°59'0 0.0
2019-Jul-17 15:58N 61°54' E 005°59'0 0.0
2019-Jul-17 15:28N 61°54' E 005°59'0 0.0
2019-Jul-17 14:58N 61°54' E 005°59'0 0.0
2019-Jul-17 14:28N 61°54' E 005°59'0 0.0
2019-Jul-17 13:58N 61°54' E 005°59'0 0.0
2019-Jul-17 13:28N 61°54' E 005°59'0 0.0
2019-Jul-17 12:58N 61°54' E 005°59'0 0.0
2019-Jul-17 12:28N 61°54' E 005°59'0 0.0
2019-Jul-17 11:58N 61°54' E 005°59'0 0.0
2019-Jul-17 11:28N 61°54' E 005°59'0 0.0
2019-Jul-17 10:58N 61°54' E 005°59'0 0.0
2019-Jul-17 10:28N 61°54' E 005°59'0 0.0
2019-Jul-17 09:58N 61°54' E 005°59'0 0.0
2019-Jul-17 09:28N 61°54' E 005°59'0 0.0
2019-Jul-17 08:58N 61°54' E 005°59'0 0.0
2019-Jul-17 08:28N 61°54' E 005°59'0 0.0
2019-Jul-17 07:58N 61°54' E 005°59'0 0.0
2019-Jul-17 07:28N 61°54' E 005°59'0 0.0
2019-Jul-17 06:58N 61°54' E 005°59'0 0.0
2019-Jul-17 06:28N 61°54' E 005°59'0 0.0
2019-Jul-17 05:58N 61°54' E 005°59'0 0.0
2019-Jul-17 05:28N 61°54' E 005°59'0 0.0
2019-Jul-17 04:58N 61°54' E 005°59'0 0.0
2019-Jul-17 04:28N 61°54' E 005°59'0 0.0
2019-Jul-17 03:59N 61°54' E 005°59'1 2.0
2019-Jul-17 03:30N 61°55' E 005°57'611.9
2019-Jul-17 03:00N 61°54' E 005°44'815.7
2019-Jul-17 02:30N 61°55' E 005°28'815.3
2019-Jul-17 02:00N 61°54' E 005°12'713.5
2019-Jul-17 01:30N 61°56' E 004°59'714.0
2019-Jul-17 01:00N 62°00' E 004°46'714.4
2019-Jul-17 00:30N 62°04' E 004°34'612.4
2019-Jul-16 23:59N 62°10' E 004°29'714.3
2019-Jul-16 23:30N 62°16' E 004°36'714.4
2019-Jul-16 23:00N 62°22' E 004°44'713.8
2019-Jul-16 22:30N 62°28' E 004°52'713.8
2019-Jul-16 22:00N 62°31' E 005°06'714.3
2019-Jul-16 21:30N 62°31' E 005°21'714.4
2019-Jul-16 21:00N 62°31' E 005°37'62400.3
2019-Jul-16 21:00N 62°30' E 005°24'1325.6 050 / 131014.027.0 13.0 9.413.0
2019-Jul-16 20:30N 62°28' E 005°51'713.6
2019-Jul-16 20:00N 62°24' E 006°03'713.7
2019-Jul-16 19:30N 62°24' E 006°18'1019.2
2019-Jul-16 19:00N 62°27' E 006°37'917.2
2019-Jul-16 18:30N 62°25' E 006°55'917.1
2019-Jul-16 18:00N 62°17' E 007°01'815.4
2019-Jul-16 17:30N 62°09' E 006°59'4 8.5
2019-Jul-16 17:00N 62°06' E 007°05'3 6.1
2019-Jul-16 16:30N 62°06' E 007°12'0 0.1
2019-Jul-16 16:00N 62°06' E 007°12'0 0.0
2019-Jul-16 15:30N 62°06' E 007°12'0 0.0
2019-Jul-16 15:00N 62°06' E 007°12'0 0.0
2019-Jul-16 14:30N 62°06' E 007°12'0 0.0
2019-Jul-16 14:00N 62°06' E 007°12'0 0.0
2019-Jul-16 13:30N 62°06' E 007°12'0 0.0
2019-Jul-16 13:00N 62°06' E 007°12'0 0.0
2019-Jul-16 12:30N 62°06' E 007°12'0 0.0
2019-Jul-16 12:00N 62°06' E 007°12'0 0.0
2019-Jul-16 11:30N 62°06' E 007°12'0 0.0
2019-Jul-16 11:00N 62°06' E 007°12'0 0.0
2019-Jul-16 10:30N 62°06' E 007°12'0 0.0
2019-Jul-16 10:00N 62°06' E 007°12'0 0.0
2019-Jul-16 09:30N 62°06' E 007°12'0 0.0
2019-Jul-16 09:00N 62°06' E 007°12'0 0.0
2019-Jul-16 08:30N 62°06' E 007°12'0 0.0
2019-Jul-16 08:00N 62°06' E 007°12'0 0.0
2019-Jul-16 07:30N 62°06' E 007°12'0 0.0
2019-Jul-16 07:00N 62°06' E 007°12'0 0.0
2019-Jul-16 06:30N 62°06' E 007°12'0 0.1
2019-Jul-16 06:00N 62°06' E 007°12'2 3.7
2019-Jul-16 05:30N 62°07' E 007°08'511.0
2019-Jul-16 05:00N 62°08' E 006°57'917.6
2019-Jul-16 04:30N 62°16' E 007°01'917.7
2019-Jul-16 04:00N 62°25' E 006°55'816.9
2019-Jul-16 03:30N 62°26' E 006°37'1019.4
2019-Jul-16 03:00N 62°23' E 006°18'816.3
2019-Jul-16 02:30N 62°26' E 006°01'713.2
2019-Jul-16 02:00N 62°29' E 005°48'1020.4
2019-Jul-16 01:29N 62°33' E 005°28'1020.2
2019-Jul-16 01:00N 62°38' E 005°09'28618042.0
2019-Jul-16 01:00N 62°36' W 005°12'276570.0 060 / 181018.0 5.4 11.0 7.213.0
2019-Jul-16 00:30N 62°41' E 004°48'1120.9
2019-Jul-16 00:00N 62°44' E 004°27'1021.0
2019-Jul-15 23:30N 62°48' E 004°05'1122.0
2019-Jul-15 23:00N 62°54' E 003°44'1122.1
2019-Jul-15 22:29N 62°58' E 003°22'714.7
2019-Jul-15 22:00N 63°00' E 003°06'1629.1 010 / 91020.010.8 14.010.513.0
2019-Jul-15 21:26N 63°08' E 002°35'13029.3
2019-Jul-15 17:00N 63°42' W 002°06'3511.7 050 / 51020.0 5.4 11.0 10.0
2019-Jul-15 14:00N 64°12' W 002°48'6923.0 310 / 51019.010.8 10.0 6.011.0
2019-Jul-15 11:00N 64°42' W 005°12'13919.9 090 / 91020.010.8 12.0 8.312.0
2019-Jul-15 04:00N 65°36' W 010°18'2525.3 120 / 101019.010.8 7.0 9.0
2019-Jul-15 03:00N 65°48' W 011°12'1818.2 170 / 151019.010.8 9.0 7.011.0
2019-Jul-15 02:00N 65°54' W 011°54'7023.3 160 / 151018.010.8 8.0 3.810.0
2019-Jul-14 23:00N 66°24' W 014°30'108 5.7 090 / 131018.0 0.1 11.0 7.210.0
2019-Jul-14 04:00N 66°24' W 019°00'7719.4 200 / 191017.0 9.0 4.9
2019-Jul-14 00:00N 66°36' W 022°12'   270 / 91018.0 1.1 12.0 8.3

Dump ship's entire track history